createdAt,value
2022-08-18T00:00:20.075Z,98625.03
2022-08-18T00:03:01.143Z,98627.16
2022-08-18T00:05:34.730Z,98615.38
2022-08-18T00:08:06.105Z,98611.63
2022-08-18T00:10:33.539Z,98614.53
2022-08-18T00:13:01.427Z,98602.50
2022-08-18T00:15:28.393Z,98605.47
2022-08-18T00:17:54.939Z,98609.28
2022-08-18T00:20:23.997Z,98604.50
2022-08-18T00:22:52.239Z,98616.03
2022-08-18T00:25:21.100Z,98611.97
2022-08-18T00:27:47.660Z,98609.56
2022-08-18T00:30:18.723Z,98603.72
2022-08-18T00:32:49.980Z,98604.19
2022-08-18T00:35:26.128Z,98601.59
2022-08-18T00:37:57.547Z,98607.38
2022-08-18T00:40:34.480Z,98611.31
2022-08-18T00:43:05.874Z,98609.34
2022-08-18T00:45:36.713Z,98609.50
2022-08-18T00:48:08.689Z,98612.81
2022-08-18T00:50:42.650Z,98621.53
2022-08-18T00:53:12.647Z,98618.81
2022-08-18T00:55:43.758Z,98621.16
2022-08-18T00:58:28.144Z,98624.19
2022-08-18T01:00:55.227Z,98629.63
2022-08-18T01:03:25.227Z,98623.78
2022-08-18T01:05:59.982Z,98626.75
2022-08-18T01:08:28.505Z,98627.88
2022-08-18T01:10:57.629Z,98624.88
2022-08-18T01:13:30.764Z,98618.75
2022-08-18T01:15:57.666Z,98620.88
2022-08-18T01:18:43.466Z,98611.91
2022-08-18T01:21:40.830Z,98624.81
2022-08-18T01:24:12.928Z,98612.09
2022-08-18T01:26:46.478Z,98617.13
2022-08-18T01:29:18.901Z,98618.38
2022-08-18T01:31:54.513Z,98615.66
2022-08-18T01:34:24.965Z,98629.44
2022-08-18T01:36:54.214Z,98624.44
2022-08-18T01:41:22.912Z,98621.63
2022-08-18T01:42:09.237Z,98619.44
2022-08-18T01:44:36.273Z,98625.72
2022-08-18T01:47:03.461Z,98617.00
2022-08-18T01:49:29.961Z,98617.63
2022-08-18T01:51:56.455Z,98615.63
2022-08-18T01:54:23.092Z,98614.66
2022-08-18T01:56:49.738Z,98613.78
2022-08-18T01:59:16.348Z,98618.59
2022-08-18T02:01:50.688Z,98617.47
2022-08-18T02:04:36.115Z,98613.81
2022-08-18T02:07:07.113Z,98612.63
2022-08-18T02:09:34.351Z,98620.34
2022-08-18T02:12:01.365Z,98620.41
2022-08-18T02:14:28.152Z,98621.16
2022-08-18T02:17:01.970Z,98621.31
2022-08-18T02:19:36.880Z,98618.91
2022-08-18T02:22:04.259Z,98618.16
2022-08-18T02:24:30.840Z,98615.50
2022-08-18T02:26:57.485Z,98615.72
2022-08-18T02:29:24.247Z,98614.59
2022-08-18T02:31:50.910Z,98608.75
2022-08-18T02:34:18.060Z,98602.00
2022-08-18T02:36:44.935Z,98608.44
2022-08-18T02:39:11.676Z,98602.09
2022-08-18T02:41:38.193Z,98593.72
2022-08-18T02:44:07.166Z,98602.44
2022-08-18T02:46:33.742Z,98602.06
2022-08-18T02:49:00.677Z,98602.53
2022-08-18T02:51:28.061Z,98599.72
2022-08-18T02:53:55.357Z,98600.09
2022-08-18T02:56:40.059Z,98589.63
2022-08-18T02:59:16.161Z,98585.72
2022-08-18T03:01:46.668Z,98577.00
2022-08-18T03:04:15.982Z,98578.22
2022-08-18T03:06:44.392Z,98579.34
2022-08-18T03:09:13.863Z,98568.38
2022-08-18T03:11:40.575Z,98572.00
2022-08-18T03:14:11.294Z,98570.03
2022-08-18T03:16:54.254Z,98576.00
2022-08-18T03:19:23.856Z,98574.34
2022-08-18T03:21:50.794Z,98572.59
2022-08-18T03:24:22.815Z,98585.31
2022-08-18T03:26:51.272Z,98586.47
2022-08-18T03:29:18.057Z,98581.41
2022-08-18T03:31:45.689Z,98575.81
2022-08-18T03:34:12.762Z,98584.69
2022-08-18T03:36:39.823Z,98581.00
2022-08-18T03:39:09.727Z,98585.53
2022-08-18T03:41:57.142Z,98585.00
2022-08-18T03:44:25.973Z,98587.66
2022-08-18T03:46:52.513Z,98581.44
2022-08-18T03:49:20.863Z,98580.59
2022-08-18T03:51:48.783Z,98575.44
2022-08-18T03:54:17.282Z,98586.91
2022-08-18T03:56:45.518Z,98589.78
2022-08-18T03:59:17.938Z,98587.81
2022-08-18T04:01:47.157Z,98588.31
2022-08-18T04:04:17.168Z,98594.44
2022-08-18T04:06:53.996Z,98589.34
2022-08-18T04:09:21.987Z,98584.88
2022-08-18T04:11:49.057Z,98594.81
2022-08-18T04:14:19.235Z,98605.28
2022-08-18T04:16:46.346Z,98604.97
2022-08-18T04:19:14.179Z,98607.97
2022-08-18T04:21:55.667Z,98601.47
2022-08-18T04:24:22.278Z,98599.88
2022-08-18T04:26:49.166Z,98597.22
2022-08-18T04:29:18.818Z,98591.63
2022-08-18T04:31:45.517Z,98605.41
2022-08-18T04:34:12.552Z,98598.22
2022-08-18T04:36:39.713Z,98600.50
2022-08-18T04:39:09.461Z,98598.22
2022-08-18T04:41:38.426Z,98606.19
2022-08-18T04:44:08.816Z,98607.75
2022-08-18T04:46:42.159Z,98613.63
2022-08-18T04:49:10.659Z,98614.97
2022-08-18T04:52:34.205Z,98620.13
2022-08-18T04:54:29.685Z,98617.06
2022-08-18T04:56:56.139Z,98620.44
2022-08-18T04:59:22.720Z,98617.47
2022-08-18T05:01:49.324Z,98613.75
2022-08-18T05:04:17.529Z,98616.03
2022-08-18T05:06:45.432Z,98614.88
2022-08-18T05:09:16.345Z,98617.47
2022-08-18T05:11:44.618Z,98617.50
2022-08-18T05:14:11.963Z,98617.78
2022-08-18T05:16:48.071Z,98623.03
2022-08-18T05:19:19.825Z,98624.06
2022-08-18T05:21:53.638Z,98622.19
2022-08-18T05:24:33.563Z,98622.25
2022-08-18T05:27:04.683Z,98617.00
2022-08-18T05:29:45.626Z,98623.06
2022-08-18T05:32:46.436Z,98620.94
2022-08-18T05:35:15.256Z,98618.34
2022-08-18T05:38:06.699Z,98617.66
2022-08-18T05:40:34.813Z,98618.38
2022-08-18T05:43:03.376Z,98620.88
2022-08-18T05:45:30.065Z,98622.63
2022-08-18T05:48:00.274Z,98618.06
2022-08-18T05:50:29.408Z,98629.31
2022-08-18T05:53:13.797Z,98623.13
2022-08-18T05:56:07.052Z,98624.25
2022-08-18T05:58:38.664Z,98625.19
2022-08-18T06:01:11.997Z,98624.66
2022-08-18T06:03:47.125Z,98622.97
2022-08-18T06:06:25.543Z,98633.06
2022-08-18T06:09:10.676Z,98627.03
2022-08-18T06:11:37.256Z,98626.91
2022-08-18T06:14:04.303Z,98626.22
2022-08-18T06:16:56.288Z,98631.91
2022-08-18T06:19:58.415Z,98622.28
2022-08-18T06:22:52.107Z,98625.13
2022-08-18T06:25:43.226Z,98630.22
2022-08-18T06:28:15.859Z,98627.28
2022-08-18T06:30:42.395Z,98626.84
2022-08-18T06:33:47.063Z,98623.44
2022-08-18T06:36:39.386Z,98624.78
2022-08-18T06:39:31.575Z,98627.47
2022-08-18T06:41:58.118Z,98626.50
2022-08-18T06:44:36.540Z,98628.78
2022-08-18T06:47:46.976Z,98625.88
2022-08-18T06:50:36.477Z,98625.03
2022-08-18T06:53:07.220Z,98628.09
2022-08-18T06:55:53.613Z,98628.28
2022-08-18T06:58:30.346Z,98635.16
2022-08-18T07:01:01.564Z,98625.53
2022-08-18T07:03:37.195Z,98619.09
2022-08-18T07:06:08.556Z,98627.22
2022-08-18T07:08:41.390Z,98622.81
2022-08-18T07:11:17.961Z,98625.34
2022-08-18T07:13:54.965Z,98627.00
2022-08-18T07:16:57.056Z,98630.81
2022-08-18T07:19:29.172Z,98632.19
2022-08-18T07:22:01.660Z,98632.41
2022-08-18T07:24:33.488Z,98633.41
2022-08-18T07:27:11.507Z,98623.34
2022-08-18T07:29:58.001Z,98633.84
2022-08-18T07:32:29.890Z,98639.69
2022-08-18T07:35:00.624Z,98641.91
2022-08-18T07:37:41.429Z,98641.38
2022-08-18T07:40:36.772Z,98637.81
2022-08-18T07:43:15.891Z,98639.22
2022-08-18T07:45:47.405Z,98640.31
2022-08-18T07:48:37.774Z,98637.56
2022-08-18T07:51:24.176Z,98652.44
2022-08-18T07:53:55.927Z,98658.78
2022-08-18T07:56:37.825Z,98658.75
2022-08-18T07:59:15.163Z,98664.25
2022-08-18T08:02:03.329Z,98658.69
2022-08-18T08:04:44.835Z,98655.13
2022-08-18T08:07:25.558Z,98650.75
2022-08-18T08:10:20.758Z,98651.00
2022-08-18T08:13:31.075Z,98649.38
2022-08-18T08:16:17.747Z,98650.19
2022-08-18T08:18:59.995Z,98644.16
2022-08-18T08:21:33.167Z,98645.25
2022-08-18T08:24:26.151Z,98647.75
2022-08-18T08:26:52.704Z,98652.19
2022-08-18T08:29:48.245Z,98651.59
2022-08-18T08:32:24.455Z,98658.53
2022-08-18T08:34:57.276Z,98664.31
2022-08-18T08:37:36.555Z,98667.06
2022-08-18T08:43:19.372Z,98675.00
2022-08-18T08:45:57.124Z,98674.13
2022-08-18T08:48:29.250Z,98663.22
2022-08-18T08:51:02.552Z,98661.16
2022-08-18T08:53:35.999Z,98655.47
2022-08-18T08:56:15.608Z,98651.59
2022-08-18T08:58:49.389Z,98640.03
2022-08-18T09:01:36.869Z,98635.25
2022-08-18T09:04:28.509Z,98628.22
2022-08-18T09:07:17.323Z,98626.63
2022-08-18T09:10:14.331Z,98628.38
2022-08-18T09:12:53.745Z,98628.28
2022-08-18T09:15:45.593Z,98624.69
2022-08-18T09:18:12.400Z,98619.31
2022-08-18T09:20:44.538Z,98625.09
2022-08-18T09:23:40.276Z,98613.53
2022-08-18T09:26:39.914Z,98608.25
2022-08-18T09:29:24.753Z,98613.50
2022-08-18T09:32:22.987Z,98606.72
2022-08-18T09:35:01.043Z,98602.63
2022-08-18T09:37:45.138Z,98596.91
2022-08-18T09:41:01.766Z,98600.91
2022-08-18T09:43:52.330Z,98607.91
2022-08-18T09:46:41.504Z,98595.31
2022-08-18T09:49:22.743Z,98598.63
2022-08-18T09:51:51.302Z,98599.16
2022-08-18T09:54:21.638Z,98592.81
2022-08-18T09:56:54.144Z,98596.28
2022-08-18T09:59:34.667Z,98592.44
2022-08-18T10:02:37.655Z,98588.53
2022-08-18T10:05:18.970Z,98577.56
2022-08-18T10:08:10.125Z,98577.00
2022-08-18T10:13:48.960Z,98571.69
2022-08-18T10:16:42.014Z,98563.88
2022-08-18T10:19:39.928Z,98575.97
2022-08-18T10:22:09.864Z,98585.47
2022-08-18T10:25:09.130Z,98581.97
2022-08-18T10:27:53.479Z,98585.31
2022-08-18T10:30:30.526Z,98583.53
2022-08-18T10:33:17.937Z,98587.19
2022-08-18T10:36:00.878Z,98589.22
2022-08-18T10:38:39.718Z,98585.34
2022-08-18T10:41:15.444Z,98583.09
2022-08-18T10:43:57.661Z,98588.22
2022-08-18T10:46:37.002Z,98584.06
2022-08-18T10:49:12.972Z,98583.75
2022-08-18T10:51:59.165Z,98590.75
2022-08-18T10:57:54.571Z,98583.44
2022-08-18T11:00:22.934Z,98576.63
2022-08-18T11:06:24.681Z,98580.28
2022-08-18T11:08:57.744Z,98584.03
2022-08-18T11:11:41.511Z,98586.97
2022-08-18T11:14:47.280Z,98596.03
2022-08-18T11:17:36.131Z,98595.06
2022-08-18T11:20:11.331Z,98599.13
2022-08-18T11:22:38.234Z,98596.88
2022-08-18T11:25:20.702Z,98605.44
2022-08-18T11:27:48.998Z,98597.28
2022-08-18T11:30:30.546Z,98603.59
2022-08-18T11:32:59.713Z,98614.06
2022-08-18T11:35:44.392Z,98609.13
2022-08-18T11:38:23.146Z,98613.97
2022-08-18T11:41:12.976Z,98611.78
2022-08-18T11:43:43.126Z,98614.13
2022-08-18T11:46:27.739Z,98608.38
2022-08-18T11:48:57.245Z,98616.63
2022-08-18T11:51:28.572Z,98621.13
2022-08-18T11:54:00.117Z,98617.34
2022-08-18T11:56:38.161Z,98624.91
2022-08-18T11:59:52.226Z,98621.56
2022-08-18T12:02:19.971Z,98623.31
2022-08-18T12:04:53.148Z,98633.59
2022-08-18T12:07:35.893Z,98630.31
2022-08-18T12:13:04.106Z,98624.94
2022-08-18T12:15:44.471Z,98634.41
2022-08-18T12:21:05.456Z,98632.19
2022-08-18T12:23:39.060Z,98635.25
2022-08-18T12:29:01.487Z,98639.50
2022-08-18T12:31:48.102Z,98630.69
2022-08-18T12:34:18.002Z,98636.50
2022-08-18T12:36:53.142Z,98641.50
2022-08-18T12:39:21.185Z,98633.69
2022-08-18T12:41:49.220Z,98627.00
2022-08-18T12:44:16.139Z,98617.75
2022-08-18T12:46:45.350Z,98603.28
2022-08-18T12:49:19.645Z,98605.44
2022-08-18T12:51:50.349Z,98599.00
2022-08-18T12:54:18.497Z,98605.56
2022-08-18T12:56:50.656Z,98601.97
2022-08-18T12:59:17.673Z,98604.72
2022-08-18T13:01:44.679Z,98606.00
2022-08-18T13:04:14.000Z,98608.19
2022-08-18T13:07:00.893Z,98604.34
2022-08-18T13:09:35.682Z,98601.13
2022-08-18T13:12:16.847Z,98593.44
2022-08-18T13:14:44.140Z,98594.03
2022-08-18T13:17:32.690Z,98579.47
2022-08-18T13:19:59.429Z,98574.19
2022-08-18T13:22:32.743Z,98564.25
2022-08-18T13:25:01.560Z,98558.03
2022-08-18T13:27:30.980Z,98561.13
2022-08-18T13:30:01.849Z,98543.84
2022-08-18T13:32:34.149Z,98535.53
2022-08-18T13:35:13.369Z,98531.69
2022-08-18T13:37:41.417Z,98531.66
2022-08-18T13:40:12.472Z,98545.53
2022-08-18T13:42:50.921Z,98540.34
2022-08-18T13:45:25.270Z,98541.06
2022-08-18T13:47:52.545Z,98538.19
2022-08-18T13:50:20.909Z,98545.47
2022-08-18T13:53:00.926Z,98544.78
2022-08-18T13:55:29.113Z,98547.75
2022-08-18T13:57:56.105Z,98538.19
2022-08-18T14:00:29.696Z,98535.28
2022-08-18T14:02:58.845Z,98536.25
2022-08-18T14:05:51.070Z,98548.44
2022-08-18T14:08:12.469Z,98564.00
2022-08-18T14:10:53.317Z,98565.75
2022-08-18T14:13:24.721Z,98560.84
2022-08-18T14:15:54.715Z,98562.25
2022-08-18T14:18:22.607Z,98559.44
2022-08-18T14:21:15.439Z,98558.00
2022-08-18T14:24:17.068Z,98572.47
2022-08-18T14:26:50.981Z,98562.25
2022-08-18T14:29:45.665Z,98553.34
2022-08-18T14:32:06.944Z,98554.84
2022-08-18T14:34:33.492Z,98542.00
2022-08-18T14:36:59.976Z,98543.97
2022-08-18T14:39:26.815Z,98544.13
2022-08-18T14:41:55.793Z,98547.47
2022-08-18T14:44:24.265Z,98544.47
2022-08-18T14:46:52.541Z,98543.56
2022-08-18T14:49:28.966Z,98541.25
2022-08-18T14:51:57.845Z,98546.56
2022-08-18T14:54:28.359Z,98543.41
2022-08-18T14:56:55.445Z,98560.13
2022-08-18T14:59:23.253Z,98554.66
2022-08-18T15:01:51.443Z,98555.31
2022-08-18T15:04:19.184Z,98549.81
2022-08-18T15:06:55.677Z,98554.41
2022-08-18T15:09:23.125Z,98548.34
2022-08-18T15:11:51.086Z,98554.44
2022-08-18T15:14:18.974Z,98553.41
2022-08-18T15:16:47.350Z,98548.19
2022-08-18T15:19:58.265Z,98538.56
2022-08-18T15:22:19.109Z,98531.22
2022-08-18T15:25:03.859Z,98527.78
2022-08-18T15:27:42.930Z,98525.16
2022-08-18T15:30:19.516Z,98516.34
2022-08-18T15:32:47.658Z,98517.88
2022-08-18T15:35:17.318Z,98517.31
2022-08-18T15:37:45.908Z,98510.69
2022-08-18T15:40:30.148Z,98506.84
2022-08-18T15:43:01.833Z,98512.91
2022-08-18T15:45:35.595Z,98508.31
2022-08-18T15:48:02.647Z,98506.09
2022-08-18T15:50:30.332Z,98495.94
2022-08-18T15:53:01.020Z,98492.31
2022-08-18T15:55:35.740Z,98479.59
2022-08-18T15:58:02.769Z,98477.72
2022-08-18T16:00:31.864Z,98477.47
2022-08-18T16:03:05.020Z,98470.22
2022-08-18T16:05:40.971Z,98476.06
2022-08-18T16:08:12.250Z,98471.41
2022-08-18T16:10:41.260Z,98460.13
2022-08-18T16:13:08.747Z,98464.81
2022-08-18T16:15:38.593Z,98464.28
2022-08-18T16:18:08.703Z,98463.44
2022-08-18T16:20:36.625Z,98473.41
2022-08-18T16:23:05.477Z,98464.06
2022-08-18T16:25:32.337Z,98460.47
2022-08-18T16:28:00.185Z,98460.16
2022-08-18T16:30:28.714Z,98455.22
2022-08-18T16:32:55.958Z,98451.13
2022-08-18T16:35:22.853Z,98449.44
2022-08-18T16:37:49.902Z,98434.84
2022-08-18T16:40:19.110Z,98441.19
2022-08-18T16:42:47.008Z,98442.13
2022-08-18T16:45:16.169Z,98445.59
2022-08-18T16:47:42.955Z,98445.91
2022-08-18T16:50:14.274Z,98447.06
2022-08-18T16:52:41.416Z,98446.72
2022-08-18T16:55:10.336Z,98441.03
2022-08-18T16:58:00.473Z,98448.22
2022-08-18T17:00:46.434Z,98439.16
2022-08-18T17:03:39.751Z,98437.47
2022-08-18T17:06:10.902Z,98440.25
2022-08-18T17:08:38.895Z,98441.38
2022-08-18T17:11:09.510Z,98432.50
2022-08-18T17:13:37.685Z,98432.53
2022-08-18T17:16:04.589Z,98420.13
2022-08-18T17:18:31.605Z,98413.00
2022-08-18T17:21:03.697Z,98399.75
2022-08-18T17:23:31.597Z,98409.97
2022-08-18T17:25:59.097Z,98402.28
2022-08-18T17:28:36.197Z,98406.97
2022-08-18T17:31:02.932Z,98408.63
2022-08-18T17:33:35.618Z,98411.97
2022-08-18T17:36:08.068Z,98414.50
2022-08-18T17:38:54.171Z,98415.38
2022-08-18T17:41:21.277Z,98408.53
2022-08-18T17:43:48.220Z,98413.75
2022-08-18T17:46:28.395Z,98422.31
2022-08-18T17:49:03.518Z,98416.00
2022-08-18T17:51:44.327Z,98416.28
2022-08-18T17:54:42.012Z,98424.81
2022-08-18T17:57:14.298Z,98424.03
2022-08-18T17:59:53.841Z,98424.28
2022-08-18T18:02:30.222Z,98422.38
2022-08-18T18:05:01.601Z,98419.34
2022-08-18T18:07:55.036Z,98424.03
2022-08-18T18:13:32.949Z,98423.75
2022-08-18T18:16:24.676Z,98419.88
2022-08-18T18:19:03.196Z,98425.91
2022-08-18T18:22:00.290Z,98428.97
2022-08-18T18:24:24.021Z,98424.03
2022-08-18T18:26:52.127Z,98421.81
2022-08-18T18:29:33.294Z,98422.91
2022-08-18T18:32:24.112Z,98418.22
2022-08-18T18:35:08.107Z,98408.84
2022-08-18T18:37:44.147Z,98408.81
2022-08-18T18:40:30.628Z,98400.84
2022-08-18T18:43:16.988Z,98403.81
2022-08-18T18:46:18.866Z,98395.00
2022-08-18T18:49:10.918Z,98387.59
2022-08-18T18:51:52.753Z,98386.50
2022-08-18T18:54:39.716Z,98391.19
2022-08-18T18:57:32.749Z,98387.59
2022-08-18T19:00:19.668Z,98391.47
2022-08-18T19:03:09.652Z,98390.91
2022-08-18T19:05:37.023Z,98394.47
2022-08-18T19:08:24.169Z,98393.06
2022-08-18T19:11:09.900Z,98401.31
2022-08-18T19:13:54.158Z,98409.03
2022-08-18T19:16:24.664Z,98391.69
2022-08-18T19:18:59.732Z,98396.09
2022-08-18T19:22:03.755Z,98395.44
2022-08-18T19:24:34.550Z,98392.94
2022-08-18T19:27:03.098Z,98391.28
2022-08-18T19:29:36.313Z,98389.88
2022-08-18T19:32:15.914Z,98385.66
2022-08-18T19:34:51.611Z,98387.78
2022-08-18T19:37:36.349Z,98388.16
2022-08-18T19:40:11.565Z,98397.81
2022-08-18T19:42:48.835Z,98397.53
2022-08-18T19:45:41.905Z,98409.06
2022-08-18T19:48:20.369Z,98412.06
2022-08-18T19:50:54.194Z,98408.16
2022-08-18T19:53:36.030Z,98403.91
2022-08-18T19:56:21.688Z,98397.25
2022-08-18T19:59:19.390Z,98387.25
2022-08-18T20:02:00.616Z,98375.16
2022-08-18T20:04:39.712Z,98369.28
2022-08-18T20:07:55.308Z,98376.41
2022-08-18T20:11:08.028Z,98379.13
2022-08-18T20:13:44.116Z,98380.00
2022-08-18T20:16:33.110Z,98377.38
2022-08-18T20:19:44.350Z,98375.34
2022-08-18T20:22:30.541Z,98376.06
2022-08-18T20:25:17.591Z,98374.38
2022-08-18T20:27:51.486Z,98372.63
2022-08-18T20:30:50.758Z,98374.44
2022-08-18T20:33:26.081Z,98369.22
2022-08-18T20:36:17.668Z,98370.22
2022-08-18T20:38:50.256Z,98364.88
2022-08-18T20:41:30.073Z,98368.56
2022-08-18T20:44:50.201Z,98371.41
2022-08-18T20:47:38.516Z,98358.28
2022-08-18T20:50:23.737Z,98361.38
2022-08-18T20:53:12.093Z,98364.41
2022-08-18T20:56:31.433Z,98361.09
2022-08-18T20:59:21.840Z,98353.25
2022-08-18T21:02:07.332Z,98357.09
2022-08-18T21:04:54.743Z,98348.28
2022-08-18T21:07:36.207Z,98349.00
2022-08-18T21:10:13.796Z,98341.03
2022-08-18T21:12:52.597Z,98330.63
2022-08-18T21:15:24.335Z,98333.00
2022-08-18T21:18:03.276Z,98333.44
2022-08-18T21:20:31.477Z,98335.78
2022-08-18T21:23:12.558Z,98331.59
2022-08-18T21:25:57.889Z,98342.56
2022-08-18T21:28:27.721Z,98359.94
2022-08-18T21:31:41.573Z,98366.31
2022-08-18T21:34:28.853Z,98352.78
2022-08-18T21:36:58.035Z,98357.25
2022-08-18T21:39:25.128Z,98363.31
2022-08-18T21:41:54.429Z,98381.03
2022-08-18T21:44:24.919Z,98376.19
2022-08-18T21:46:51.899Z,98383.00
2022-08-18T21:49:27.560Z,98384.25
2022-08-18T21:51:54.694Z,98380.94
2022-08-18T21:54:24.771Z,98377.94
2022-08-18T21:57:18.339Z,98378.19
2022-08-18T22:00:11.026Z,98379.78
2022-08-18T22:02:37.591Z,98362.03
2022-08-18T22:05:04.249Z,98362.44
2022-08-18T22:07:34.998Z,98367.91
2022-08-18T22:10:37.211Z,98369.72
2022-08-18T22:13:22.026Z,98348.06
2022-08-18T22:15:50.922Z,98340.03
2022-08-18T22:18:17.787Z,98358.53
2022-08-18T22:21:00.497Z,98368.25
2022-08-18T22:23:56.150Z,98366.66
2022-08-18T22:26:31.874Z,98375.03
2022-08-18T22:29:17.503Z,98375.38
2022-08-18T22:31:50.641Z,98386.97
2022-08-18T22:34:27.660Z,98384.59
2022-08-18T22:37:07.655Z,98390.31
2022-08-18T22:39:39.212Z,98384.03
2022-08-18T22:42:06.659Z,98396.13
2022-08-18T22:44:33.474Z,98386.09
2022-08-18T22:46:59.988Z,98383.50
2022-08-18T22:49:26.805Z,98378.94
2022-08-18T22:51:54.979Z,98367.50
2022-08-18T22:54:22.478Z,98363.59
2022-08-18T22:56:56.740Z,98362.03
2022-08-18T22:59:26.888Z,98373.13
2022-08-18T23:01:55.035Z,98368.63
2022-08-18T23:04:24.659Z,98360.69
2022-08-18T23:06:53.621Z,98361.44
2022-08-18T23:09:23.383Z,98362.13
2022-08-18T23:11:51.513Z,98355.78
2022-08-18T23:14:18.219Z,98359.44
2022-08-18T23:16:45.261Z,98348.47
2022-08-18T23:19:14.273Z,98362.13
2022-08-18T23:21:41.439Z,98348.44
2022-08-18T23:24:10.266Z,98341.16
2022-08-18T23:26:37.445Z,98335.22
2022-08-18T23:29:05.258Z,98328.66
2022-08-18T23:31:32.727Z,98328.00
2022-08-18T23:34:00.668Z,98311.00
2022-08-18T23:36:32.872Z,98312.22
2022-08-18T23:39:00.744Z,98313.06
2022-08-18T23:41:27.281Z,98317.63
2022-08-18T23:43:54.908Z,98319.72
2022-08-18T23:46:24.712Z,98320.81
2022-08-18T23:48:53.101Z,98320.47
2022-08-18T23:51:24.225Z,98330.84
2022-08-18T23:53:52.168Z,98342.63
2022-08-18T23:56:19.814Z,98334.91
2022-08-18T23:58:46.425Z,98336.97
